sensor_id;sensor_type;location;lat;lon;timestamp;P1;durP1;ratioP1;P2;durP2;ratioP2
71566;SDS011;59403;47.456;19.120;2024-02-14T00:01:36;6.90;;;3.50;;
71566;SDS011;59403;47.456;19.120;2024-02-14T00:04:03;6.68;;;3.67;;
71566;SDS011;59403;47.456;19.120;2024-02-14T00:06:34;5.68;;;3.58;;
71566;SDS011;59403;47.456;19.120;2024-02-14T00:09:01;6.10;;;3.72;;
71566;SDS011;59403;47.456;19.120;2024-02-14T00:11:28;5.97;;;3.08;;
71566;SDS011;59403;47.456;19.120;2024-02-14T00:13:56;8.10;;;3.33;;
71566;SDS011;59403;47.456;19.120;2024-02-14T00:16:24;6.57;;;3.58;;
71566;SDS011;59403;47.456;19.120;2024-02-14T00:18:50;6.22;;;3.97;;
71566;SDS011;59403;47.456;19.120;2024-02-14T00:21:17;6.70;;;3.47;;
71566;SDS011;59403;47.456;19.120;2024-02-14T00:23:43;5.68;;;3.15;;
71566;SDS011;59403;47.456;19.120;2024-02-14T00:26:10;6.23;;;3.90;;
71566;SDS011;59403;47.456;19.120;2024-02-14T00:28:37;6.85;;;3.60;;
71566;SDS011;59403;47.456;19.120;2024-02-14T00:31:05;6.65;;;3.45;;
71566;SDS011;59403;47.456;19.120;2024-02-14T00:33:32;5.78;;;3.60;;
71566;SDS011;59403;47.456;19.120;2024-02-14T00:35:58;6.40;;;3.05;;
71566;SDS011;59403;47.456;19.120;2024-02-14T00:38:25;6.13;;;3.40;;
71566;SDS011;59403;47.456;19.120;2024-02-14T00:40:51;6.25;;;3.60;;
71566;SDS011;59403;47.456;19.120;2024-02-14T00:43:18;5.55;;;3.22;;
71566;SDS011;59403;47.456;19.120;2024-02-14T00:45:45;7.80;;;3.50;;
71566;SDS011;59403;47.456;19.120;2024-02-14T00:48:14;7.55;;;3.50;;
71566;SDS011;59403;47.456;19.120;2024-02-14T00:50:40;6.90;;;3.30;;
71566;SDS011;59403;47.456;19.120;2024-02-14T00:53:07;7.37;;;3.87;;
71566;SDS011;59403;47.456;19.120;2024-02-14T00:55:33;5.95;;;3.45;;
71566;SDS011;59403;47.456;19.120;2024-02-14T00:58:00;7.12;;;3.25;;
71566;SDS011;59403;47.456;19.120;2024-02-14T01:00:27;6.95;;;3.45;;
71566;SDS011;59403;47.456;19.120;2024-02-14T01:02:54;7.83;;;3.90;;
71566;SDS011;59403;47.456;19.120;2024-02-14T01:05:22;8.55;;;3.67;;
71566;SDS011;59403;47.456;19.120;2024-02-14T01:07:49;6.55;;;3.37;;
71566;SDS011;59403;47.456;19.120;2024-02-14T01:10:16;6.03;;;3.08;;
71566;SDS011;59403;47.456;19.120;2024-02-14T01:12:43;6.50;;;3.67;;
71566;SDS011;59403;47.456;19.120;2024-02-14T01:15:10;6.50;;;3.17;;
71566;SDS011;59403;47.456;19.120;2024-02-14T01:17:37;7.55;;;3.83;;
71566;SDS011;59403;47.456;19.120;2024-02-14T01:20:03;6.25;;;3.40;;
71566;SDS011;59403;47.456;19.120;2024-02-14T01:22:32;6.62;;;3.22;;
71566;SDS011;59403;47.456;19.120;2024-02-14T01:24:59;5.80;;;2.85;;
71566;SDS011;59403;47.456;19.120;2024-02-14T01:27:25;7.03;;;3.10;;
71566;SDS011;59403;47.456;19.120;2024-02-14T01:29:53;5.78;;;3.10;;
71566;SDS011;59403;47.456;19.120;2024-02-14T01:32:20;5.82;;;2.87;;
71566;SDS011;59403;47.456;19.120;2024-02-14T01:34:47;5.82;;;3.10;;
71566;SDS011;59403;47.456;19.120;2024-02-14T01:37:14;4.97;;;3.00;;
71566;SDS011;59403;47.456;19.120;2024-02-14T01:39:42;6.63;;;3.40;;
71566;SDS011;59403;47.456;19.120;2024-02-14T01:42:08;6.25;;;3.28;;
71566;SDS011;59403;47.456;19.120;2024-02-14T01:44:35;6.07;;;3.42;;
71566;SDS011;59403;47.456;19.120;2024-02-14T01:47:02;7.10;;;3.50;;
71566;SDS011;59403;47.456;19.120;2024-02-14T01:49:29;6.60;;;3.50;;
71566;SDS011;59403;47.456;19.120;2024-02-14T01:51:57;6.53;;;3.47;;
71566;SDS011;59403;47.456;19.120;2024-02-14T01:54:27;8.98;;;3.65;;
71566;SDS011;59403;47.456;19.120;2024-02-14T01:56:56;6.37;;;3.08;;
71566;SDS011;59403;47.456;19.120;2024-02-14T01:59:25;7.43;;;3.28;;
71566;SDS011;59403;47.456;19.120;2024-02-14T02:04:42;5.80;;;3.27;;
71566;SDS011;59403;47.456;19.120;2024-02-14T02:07:09;6.03;;;3.67;;
71566;SDS011;59403;47.456;19.120;2024-02-14T02:09:36;6.95;;;3.35;;
71566;SDS011;59403;47.456;19.120;2024-02-14T02:12:04;6.53;;;3.85;;
71566;SDS011;59403;47.456;19.120;2024-02-14T02:14:32;10.13;;;3.80;;
71566;SDS011;59403;47.456;19.120;2024-02-14T02:16:59;6.10;;;3.57;;
71566;SDS011;59403;47.456;19.120;2024-02-14T02:19:27;7.05;;;3.50;;
71566;SDS011;59403;47.456;19.120;2024-02-14T02:21:54;5.28;;;3.42;;
71566;SDS011;59403;47.456;19.120;2024-02-14T02:24:22;7.55;;;3.78;;
71566;SDS011;59403;47.456;19.120;2024-02-14T02:26:48;9.45;;;3.45;;
71566;SDS011;59403;47.456;19.120;2024-02-14T02:29:15;5.57;;;3.27;;
71566;SDS011;59403;47.456;19.120;2024-02-14T02:31:44;5.18;;;3.03;;
71566;SDS011;59403;47.456;19.120;2024-02-14T02:34:11;7.57;;;3.55;;
71566;SDS011;59403;47.456;19.120;2024-02-14T02:36:38;6.00;;;3.25;;
71566;SDS011;59403;47.456;19.120;2024-02-14T02:39:05;6.22;;;3.20;;
71566;SDS011;59403;47.456;19.120;2024-02-14T02:41:32;5.33;;;3.00;;
71566;SDS011;59403;47.456;19.120;2024-02-14T02:43:59;6.87;;;3.33;;
71566;SDS011;59403;47.456;19.120;2024-02-14T02:46:26;6.32;;;2.90;;
71566;SDS011;59403;47.456;19.120;2024-02-14T02:48:54;8.52;;;3.58;;
71566;SDS011;59403;47.456;19.120;2024-02-14T02:51:23;5.97;;;2.97;;
71566;SDS011;59403;47.456;19.120;2024-02-14T02:53:50;6.90;;;3.10;;
71566;SDS011;59403;47.456;19.120;2024-02-14T02:56:17;6.32;;;3.35;;
71566;SDS011;59403;47.456;19.120;2024-02-14T02:58:45;4.93;;;2.83;;
71566;SDS011;59403;47.456;19.120;2024-02-14T03:01:13;6.22;;;3.08;;
71566;SDS011;59403;47.456;19.120;2024-02-14T03:03:40;8.70;;;3.40;;
71566;SDS011;59403;47.456;19.120;2024-02-14T03:06:07;5.33;;;3.00;;
71566;SDS011;59403;47.456;19.120;2024-02-14T03:08:34;6.68;;;3.00;;
71566;SDS011;59403;47.456;19.120;2024-02-14T03:11:02;6.43;;;3.47;;
71566;SDS011;59403;47.456;19.120;2024-02-14T03:13:30;8.05;;;3.20;;
71566;SDS011;59403;47.456;19.120;2024-02-14T03:15:58;7.70;;;3.50;;
71566;SDS011;59403;47.456;19.120;2024-02-14T03:18:25;6.27;;;3.53;;
71566;SDS011;59403;47.456;19.120;2024-02-14T03:20:52;6.80;;;3.37;;
71566;SDS011;59403;47.456;19.120;2024-02-14T03:23:19;6.40;;;3.62;;
71566;SDS011;59403;47.456;19.120;2024-02-14T03:25:47;6.43;;;3.40;;
71566;SDS011;59403;47.456;19.120;2024-02-14T03:28:14;5.57;;;3.37;;
71566;SDS011;59403;47.456;19.120;2024-02-14T03:30:40;5.93;;;3.50;;
71566;SDS011;59403;47.456;19.120;2024-02-14T03:33:08;8.88;;;4.32;;
71566;SDS011;59403;47.456;19.120;2024-02-14T03:35:35;7.18;;;3.85;;
71566;SDS011;59403;47.456;19.120;2024-02-14T03:38:01;7.37;;;4.30;;
71566;SDS011;59403;47.456;19.120;2024-02-14T03:40:29;8.60;;;4.15;;
71566;SDS011;59403;47.456;19.120;2024-02-14T03:42:56;8.33;;;4.27;;
71566;SDS011;59403;47.456;19.120;2024-02-14T03:45:23;8.52;;;4.10;;
71566;SDS011;59403;47.456;19.120;2024-02-14T03:47:49;8.27;;;4.22;;
71566;SDS011;59403;47.456;19.120;2024-02-14T03:50:17;10.27;;;4.10;;
71566;SDS011;59403;47.456;19.120;2024-02-14T03:52:44;8.25;;;4.65;;
71566;SDS011;59403;47.456;19.120;2024-02-14T03:55:12;8.27;;;4.23;;
71566;SDS011;59403;47.456;19.120;2024-02-14T03:57:39;8.23;;;4.53;;
71566;SDS011;59403;47.456;19.120;2024-02-14T04:00:07;9.63;;;4.70;;
71566;SDS011;59403;47.456;19.120;2024-02-14T04:02:35;11.80;;;4.93;;
71566;SDS011;59403;47.456;19.120;2024-02-14T04:05:02;13.20;;;5.70;;
71566;SDS011;59403;47.456;19.120;2024-02-14T04:07:30;13.03;;;5.23;;
71566;SDS011;59403;47.456;19.120;2024-02-14T04:09:56;9.55;;;5.03;;
71566;SDS011;59403;47.456;19.120;2024-02-14T04:12:23;14.30;;;5.93;;
71566;SDS011;59403;47.456;19.120;2024-02-14T04:14:50;11.12;;;5.07;;
71566;SDS011;59403;47.456;19.120;2024-02-14T04:17:16;8.20;;;4.50;;
71566;SDS011;59403;47.456;19.120;2024-02-14T04:19:43;8.30;;;4.80;;
71566;SDS011;59403;47.456;19.120;2024-02-14T04:22:10;10.07;;;4.90;;
71566;SDS011;59403;47.456;19.120;2024-02-14T04:24:38;10.88;;;5.10;;
71566;SDS011;59403;47.456;19.120;2024-02-14T04:27:04;9.55;;;5.00;;
71566;SDS011;59403;47.456;19.120;2024-02-14T04:29:31;15.48;;;6.97;;
71566;SDS011;59403;47.456;19.120;2024-02-14T04:31:58;10.23;;;5.13;;
71566;SDS011;59403;47.456;19.120;2024-02-14T04:34:25;10.32;;;5.12;;
71566;SDS011;59403;47.456;19.120;2024-02-14T04:36:51;12.93;;;5.95;;
71566;SDS011;59403;47.456;19.120;2024-02-14T04:39:18;11.45;;;6.10;;
71566;SDS011;59403;47.456;19.120;2024-02-14T04:41:46;10.77;;;5.62;;
71566;SDS011;59403;47.456;19.120;2024-02-14T04:44:15;10.93;;;5.20;;
71566;SDS011;59403;47.456;19.120;2024-02-14T04:46:41;11.68;;;5.95;;
71566;SDS011;59403;47.456;19.120;2024-02-14T04:49:08;10.68;;;5.55;;
71566;SDS011;59403;47.456;19.120;2024-02-14T04:51:35;13.75;;;5.80;;
71566;SDS011;59403;47.456;19.120;2024-02-14T04:54:02;12.32;;;5.72;;
71566;SDS011;59403;47.456;19.120;2024-02-14T04:56:31;12.90;;;6.13;;
71566;SDS011;59403;47.456;19.120;2024-02-14T04:58:58;10.88;;;5.78;;
71566;SDS011;59403;47.456;19.120;2024-02-14T05:01:25;11.23;;;5.78;;
71566;SDS011;59403;47.456;19.120;2024-02-14T05:03:52;13.15;;;5.80;;
71566;SDS011;59403;47.456;19.120;2024-02-14T05:06:18;13.82;;;8.07;;
71566;SDS011;59403;47.456;19.120;2024-02-14T05:08:45;11.33;;;6.47;;
71566;SDS011;59403;47.456;19.120;2024-02-14T05:11:11;15.73;;;7.00;;
71566;SDS011;59403;47.456;19.120;2024-02-14T05:13:38;13.05;;;7.20;;
71566;SDS011;59403;47.456;19.120;2024-02-14T05:16:08;17.45;;;7.03;;
71566;SDS011;59403;47.456;19.120;2024-02-14T05:18:35;15.48;;;6.60;;
71566;SDS011;59403;47.456;19.120;2024-02-14T05:21:04;13.57;;;6.40;;
71566;SDS011;59403;47.456;19.120;2024-02-14T05:23:31;11.95;;;7.10;;
71566;SDS011;59403;47.456;19.120;2024-02-14T05:25:58;12.25;;;6.28;;
71566;SDS011;59403;47.456;19.120;2024-02-14T05:28:25;13.43;;;6.37;;
71566;SDS011;59403;47.456;19.120;2024-02-14T05:30:51;14.05;;;6.55;;
71566;SDS011;59403;47.456;19.120;2024-02-14T05:33:19;12.83;;;6.73;;
71566;SDS011;59403;47.456;19.120;2024-02-14T05:35:47;14.00;;;6.37;;
71566;SDS011;59403;47.456;19.120;2024-02-14T05:38:14;13.23;;;6.70;;
71566;SDS011;59403;47.456;19.120;2024-02-14T05:40:40;15.40;;;6.82;;
71566;SDS011;59403;47.456;19.120;2024-02-14T05:43:08;11.50;;;6.55;;
71566;SDS011;59403;47.456;19.120;2024-02-14T05:45:35;12.67;;;7.03;;
71566;SDS011;59403;47.456;19.120;2024-02-14T05:48:02;12.77;;;6.78;;
71566;SDS011;59403;47.456;19.120;2024-02-14T05:50:30;14.40;;;6.78;;
71566;SDS011;59403;47.456;19.120;2024-02-14T05:52:57;14.25;;;6.97;;
71566;SDS011;59403;47.456;19.120;2024-02-14T05:55:24;12.02;;;6.78;;
71566;SDS011;59403;47.456;19.120;2024-02-14T05:57:51;14.67;;;7.13;;
71566;SDS011;59403;47.456;19.120;2024-02-14T06:00:18;16.83;;;7.62;;
71566;SDS011;59403;47.456;19.120;2024-02-14T06:02:45;16.42;;;7.47;;
71566;SDS011;59403;47.456;19.120;2024-02-14T06:05:12;15.32;;;7.78;;
71566;SDS011;59403;47.456;19.120;2024-02-14T06:07:41;15.80;;;7.80;;
71566;SDS011;59403;47.456;19.120;2024-02-14T06:10:10;14.60;;;7.17;;
71566;SDS011;59403;47.456;19.120;2024-02-14T06:12:37;18.65;;;8.25;;
71566;SDS011;59403;47.456;19.120;2024-02-14T06:15:05;15.75;;;7.85;;
71566;SDS011;59403;47.456;19.120;2024-02-14T06:17:32;15.55;;;7.97;;
71566;SDS011;59403;47.456;19.120;2024-02-14T06:19:59;15.60;;;7.90;;
71566;SDS011;59403;47.456;19.120;2024-02-14T06:22:30;16.63;;;8.30;;
71566;SDS011;59403;47.456;19.120;2024-02-14T06:24:58;19.90;;;8.38;;
71566;SDS011;59403;47.456;19.120;2024-02-14T06:27:25;15.90;;;7.78;;
71566;SDS011;59403;47.456;19.120;2024-02-14T06:29:52;15.23;;;8.23;;
71566;SDS011;59403;47.456;19.120;2024-02-14T06:32:19;14.20;;;7.95;;
71566;SDS011;59403;47.456;19.120;2024-02-14T06:34:46;17.30;;;8.03;;
71566;SDS011;59403;47.456;19.120;2024-02-14T06:37:13;15.15;;;7.95;;
71566;SDS011;59403;47.456;19.120;2024-02-14T06:39:39;18.92;;;8.43;;
71566;SDS011;59403;47.456;19.120;2024-02-14T06:42:07;17.70;;;8.68;;
71566;SDS011;59403;47.456;19.120;2024-02-14T06:44:34;17.95;;;9.07;;
71566;SDS011;59403;47.456;19.120;2024-02-14T06:47:01;16.97;;;8.67;;
71566;SDS011;59403;47.456;19.120;2024-02-14T06:49:27;18.37;;;8.65;;
71566;SDS011;59403;47.456;19.120;2024-02-14T06:51:54;17.37;;;8.48;;
71566;SDS011;59403;47.456;19.120;2024-02-14T06:54:20;18.40;;;8.85;;
71566;SDS011;59403;47.456;19.120;2024-02-14T06:56:47;21.87;;;9.90;;
71566;SDS011;59403;47.456;19.120;2024-02-14T06:59:15;22.67;;;9.90;;
71566;SDS011;59403;47.456;19.120;2024-02-14T07:01:41;21.60;;;10.65;;
71566;SDS011;59403;47.456;19.120;2024-02-14T07:04:08;17.85;;;10.48;;
71566;SDS011;59403;47.456;19.120;2024-02-14T07:06:34;21.23;;;9.93;;
71566;SDS011;59403;47.456;19.120;2024-02-14T07:09:01;20.55;;;10.75;;
71566;SDS011;59403;47.456;19.120;2024-02-14T07:11:28;20.07;;;10.50;;
71566;SDS011;59403;47.456;19.120;2024-02-14T07:13:55;21.05;;;9.52;;
71566;SDS011;59403;47.456;19.120;2024-02-14T07:16:23;18.12;;;10.13;;
71566;SDS011;59403;47.456;19.120;2024-02-14T07:18:50;21.08;;;9.57;;
71566;SDS011;59403;47.456;19.120;2024-02-14T07:21:20;23.60;;;10.45;;
71566;SDS011;59403;47.456;19.120;2024-02-14T07:23:46;26.27;;;12.80;;
71566;SDS011;59403;47.456;19.120;2024-02-14T07:26:13;25.60;;;11.73;;
71566;SDS011;59403;47.456;19.120;2024-02-14T07:28:40;26.95;;;12.13;;
71566;SDS011;59403;47.456;19.120;2024-02-14T07:31:07;21.45;;;12.45;;
71566;SDS011;59403;47.456;19.120;2024-02-14T07:33:35;24.40;;;11.98;;
71566;SDS011;59403;47.456;19.120;2024-02-14T07:36:01;26.33;;;12.13;;
71566;SDS011;59403;47.456;19.120;2024-02-14T07:38:28;25.70;;;11.73;;
71566;SDS011;59403;47.456;19.120;2024-02-14T07:40:54;22.02;;;11.75;;
71566;SDS011;59403;47.456;19.120;2024-02-14T07:43:21;27.58;;;12.02;;
71566;SDS011;59403;47.456;19.120;2024-02-14T07:45:48;21.10;;;11.23;;
71566;SDS011;59403;47.456;19.120;2024-02-14T07:48:15;20.70;;;10.83;;
71566;SDS011;59403;47.456;19.120;2024-02-14T07:50:43;24.73;;;11.07;;
71566;SDS011;59403;47.456;19.120;2024-02-14T07:53:10;19.12;;;10.35;;
71566;SDS011;59403;47.456;19.120;2024-02-14T07:55:36;19.33;;;9.43;;
71566;SDS011;59403;47.456;19.120;2024-02-14T07:58:04;17.65;;;9.65;;
71566;SDS011;59403;47.456;19.120;2024-02-14T08:00:30;19.37;;;9.43;;
71566;SDS011;59403;47.456;19.120;2024-02-14T08:02:57;22.35;;;9.60;;
71566;SDS011;59403;47.456;19.120;2024-02-14T08:05:23;24.37;;;9.73;;
71566;SDS011;59403;47.456;19.120;2024-02-14T08:07:51;20.27;;;9.30;;
71566;SDS011;59403;47.456;19.120;2024-02-14T08:10:18;24.10;;;9.43;;
71566;SDS011;59403;47.456;19.120;2024-02-14T08:12:45;13.87;;;7.27;;
71566;SDS011;59403;47.456;19.120;2024-02-14T08:15:12;14.00;;;7.40;;
71566;SDS011;59403;47.456;19.120;2024-02-14T08:17:39;12.95;;;7.18;;
71566;SDS011;59403;47.456;19.120;2024-02-14T08:20:09;11.93;;;6.60;;
71566;SDS011;59403;47.456;19.120;2024-02-14T08:22:36;12.95;;;6.65;;
71566;SDS011;59403;47.456;19.120;2024-02-14T08:25:05;14.50;;;6.97;;
71566;SDS011;59403;47.456;19.120;2024-02-14T08:27:32;11.85;;;6.75;;
71566;SDS011;59403;47.456;19.120;2024-02-14T08:29:58;11.55;;;5.85;;
71566;SDS011;59403;47.456;19.120;2024-02-14T08:32:25;11.75;;;6.87;;
71566;SDS011;59403;47.456;19.120;2024-02-14T08:34:51;10.55;;;6.60;;
71566;SDS011;59403;47.456;19.120;2024-02-14T08:37:18;11.03;;;4.90;;
71566;SDS011;59403;47.456;19.120;2024-02-14T08:39:44;9.00;;;5.05;;
71566;SDS011;59403;47.456;19.120;2024-02-14T08:42:12;12.77;;;4.90;;
71566;SDS011;59403;47.456;19.120;2024-02-14T08:44:39;12.43;;;4.68;;
71566;SDS011;59403;47.456;19.120;2024-02-14T08:47:06;9.77;;;4.25;;
71566;SDS011;59403;47.456;19.120;2024-02-14T08:49:33;9.93;;;4.50;;
71566;SDS011;59403;47.456;19.120;2024-02-14T08:52:00;8.65;;;4.05;;
71566;SDS011;59403;47.456;19.120;2024-02-14T08:54:27;8.25;;;4.03;;
71566;SDS011;59403;47.456;19.120;2024-02-14T08:56:53;8.45;;;4.68;;
71566;SDS011;59403;47.456;19.120;2024-02-14T08:59:25;8.52;;;4.70;;
71566;SDS011;59403;47.456;19.120;2024-02-14T09:01:51;10.30;;;4.77;;
71566;SDS011;59403;47.456;19.120;2024-02-14T09:04:18;9.35;;;4.93;;
71566;SDS011;59403;47.456;19.120;2024-02-14T09:06:44;10.70;;;4.78;;
71566;SDS011;59403;47.456;19.120;2024-02-14T09:09:11;11.25;;;5.05;;
71566;SDS011;59403;47.456;19.120;2024-02-14T09:11:39;13.02;;;5.35;;
71566;SDS011;59403;47.456;19.120;2024-02-14T09:14:06;8.83;;;4.90;;
71566;SDS011;59403;47.456;19.120;2024-02-14T09:16:34;13.45;;;5.35;;
71566;SDS011;59403;47.456;19.120;2024-02-14T09:19:00;10.18;;;5.18;;
71566;SDS011;59403;47.456;19.120;2024-02-14T09:21:27;10.45;;;5.20;;
71566;SDS011;59403;47.456;19.120;2024-02-14T09:23:56;9.13;;;4.70;;
71566;SDS011;59403;47.456;19.120;2024-02-14T09:26:23;12.57;;;4.90;;
71566;SDS011;59403;47.456;19.120;2024-02-14T09:28:49;8.85;;;4.12;;
71566;SDS011;59403;47.456;19.120;2024-02-14T09:31:19;11.02;;;4.60;;
71566;SDS011;59403;47.456;19.120;2024-02-14T09:33:47;9.27;;;4.60;;
71566;SDS011;59403;47.456;19.120;2024-02-14T09:36:17;10.32;;;4.97;;
71566;SDS011;59403;47.456;19.120;2024-02-14T09:38:47;14.13;;;5.33;;
71566;SDS011;59403;47.456;19.120;2024-02-14T09:41:19;12.43;;;5.40;;
71566;SDS011;59403;47.456;19.120;2024-02-14T09:43:51;9.88;;;5.60;;
71566;SDS011;59403;47.456;19.120;2024-02-14T09:46:18;11.88;;;5.80;;
71566;SDS011;59403;47.456;19.120;2024-02-14T09:48:48;11.70;;;6.32;;
71566;SDS011;59403;47.456;19.120;2024-02-14T09:51:16;14.73;;;6.73;;
71566;SDS011;59403;47.456;19.120;2024-02-14T09:53:43;11.85;;;6.50;;
71566;SDS011;59403;47.456;19.120;2024-02-14T09:56:14;12.90;;;6.72;;
71566;SDS011;59403;47.456;19.120;2024-02-14T09:58:46;13.48;;;7.07;;
71566;SDS011;59403;47.456;19.120;2024-02-14T10:01:20;13.25;;;6.72;;
71566;SDS011;59403;47.456;19.120;2024-02-14T10:03:50;10.93;;;5.87;;
71566;SDS011;59403;47.456;19.120;2024-02-14T10:06:17;10.43;;;5.57;;
71566;SDS011;59403;47.456;19.120;2024-02-14T10:08:45;12.15;;;6.65;;
71566;SDS011;59403;47.456;19.120;2024-02-14T10:11:12;13.90;;;6.10;;
71566;SDS011;59403;47.456;19.120;2024-02-14T10:13:40;11.10;;;5.78;;
71566;SDS011;59403;47.456;19.120;2024-02-14T10:16:06;10.90;;;5.93;;
71566;SDS011;59403;47.456;19.120;2024-02-14T10:18:33;8.55;;;5.03;;
71566;SDS011;59403;47.456;19.120;2024-02-14T10:21:01;6.80;;;4.47;;
71566;SDS011;59403;47.456;19.120;2024-02-14T10:23:29;7.25;;;3.95;;
71566;SDS011;59403;47.456;19.120;2024-02-14T10:25:57;7.22;;;4.07;;
71566;SDS011;59403;47.456;19.120;2024-02-14T10:28:24;6.73;;;4.17;;
71566;SDS011;59403;47.456;19.120;2024-02-14T10:30:54;8.27;;;4.15;;
71566;SDS011;59403;47.456;19.120;2024-02-14T10:33:21;7.93;;;4.32;;
71566;SDS011;59403;47.456;19.120;2024-02-14T10:35:48;6.10;;;3.80;;
71566;SDS011;59403;47.456;19.120;2024-02-14T10:38:23;6.95;;;4.22;;
71566;SDS011;59403;47.456;19.120;2024-02-14T10:40:51;10.83;;;4.17;;
71566;SDS011;59403;47.456;19.120;2024-02-14T10:43:19;9.40;;;4.53;;
71566;SDS011;59403;47.456;19.120;2024-02-14T10:45:46;7.15;;;4.12;;
71566;SDS011;59403;47.456;19.120;2024-02-14T10:48:15;8.40;;;4.07;;
71566;SDS011;59403;47.456;19.120;2024-02-14T10:50:43;8.02;;;4.07;;
71566;SDS011;59403;47.456;19.120;2024-02-14T10:53:12;6.17;;;4.13;;
71566;SDS011;59403;47.456;19.120;2024-02-14T10:55:42;3.67;;;2.47;;
71566;SDS011;59403;47.456;19.120;2024-02-14T10:58:12;4.93;;;2.10;;
71566;SDS011;59403;47.456;19.120;2024-02-14T11:00:39;4.90;;;2.30;;
71566;SDS011;59403;47.456;19.120;2024-02-14T11:03:07;3.75;;;2.05;;
71566;SDS011;59403;47.456;19.120;2024-02-14T11:05:42;5.60;;;2.80;;
71566;SDS011;59403;47.456;19.120;2024-02-14T11:08:12;7.60;;;3.72;;
71566;SDS011;59403;47.456;19.120;2024-02-14T11:10:39;4.72;;;2.20;;
71566;SDS011;59403;47.456;19.120;2024-02-14T11:13:12;4.72;;;2.37;;
71566;SDS011;59403;47.456;19.120;2024-02-14T11:15:39;4.82;;;2.10;;
71566;SDS011;59403;47.456;19.120;2024-02-14T11:18:06;5.77;;;2.47;;
71566;SDS011;59403;47.456;19.120;2024-02-14T11:20:34;4.80;;;2.37;;
71566;SDS011;59403;47.456;19.120;2024-02-14T11:23:02;3.62;;;2.10;;
71566;SDS011;59403;47.456;19.120;2024-02-14T11:25:31;4.68;;;2.22;;
71566;SDS011;59403;47.456;19.120;2024-02-14T11:28:01;9.00;;;8.10;;
71566;SDS011;59403;47.456;19.120;2024-02-14T11:30:39;3.87;;;2.30;;
71566;SDS011;59403;47.456;19.120;2024-02-14T11:33:12;7.65;;;2.70;;
71566;SDS011;59403;47.456;19.120;2024-02-14T11:35:41;8.13;;;2.83;;
71566;SDS011;59403;47.456;19.120;2024-02-14T11:38:08;5.85;;;3.00;;
71566;SDS011;59403;47.456;19.120;2024-02-14T11:40:35;6.80;;;3.25;;
71566;SDS011;59403;47.456;19.120;2024-02-14T11:43:04;5.73;;;3.43;;
71566;SDS011;59403;47.456;19.120;2024-02-14T11:45:32;4.53;;;3.10;;
71566;SDS011;59403;47.456;19.120;2024-02-14T11:47:58;6.07;;;3.20;;
71566;SDS011;59403;47.456;19.120;2024-02-14T11:50:25;7.87;;;4.28;;
71566;SDS011;59403;47.456;19.120;2024-02-14T11:52:52;7.90;;;4.50;;
71566;SDS011;59403;47.456;19.120;2024-02-14T11:55:18;6.70;;;3.50;;
71566;SDS011;59403;47.456;19.120;2024-02-14T11:57:53;7.10;;;3.20;;
71566;SDS011;59403;47.456;19.120;2024-02-14T12:00:22;7.43;;;3.90;;
71566;SDS011;59403;47.456;19.120;2024-02-14T12:02:49;5.37;;;3.60;;
71566;SDS011;59403;47.456;19.120;2024-02-14T12:05:16;4.87;;;3.05;;
71566;SDS011;59403;47.456;19.120;2024-02-14T12:07:44;4.28;;;2.10;;
71566;SDS011;59403;47.456;19.120;2024-02-14T12:10:11;5.70;;;2.60;;
71566;SDS011;59403;47.456;19.120;2024-02-14T12:12:37;6.25;;;2.83;;
71566;SDS011;59403;47.456;19.120;2024-02-14T12:15:04;6.15;;;2.37;;
71566;SDS011;59403;47.456;19.120;2024-02-14T12:17:33;4.55;;;2.80;;
71566;SDS011;59403;47.456;19.120;2024-02-14T12:20:05;5.40;;;2.50;;
71566;SDS011;59403;47.456;19.120;2024-02-14T12:22:35;4.37;;;2.47;;
71566;SDS011;59403;47.456;19.120;2024-02-14T12:25:02;4.62;;;2.08;;
71566;SDS011;59403;47.456;19.120;2024-02-14T12:27:31;3.55;;;2.33;;
71566;SDS011;59403;47.456;19.120;2024-02-14T12:29:58;5.40;;;2.47;;
71566;SDS011;59403;47.456;19.120;2024-02-14T12:32:25;3.80;;;1.90;;
71566;SDS011;59403;47.456;19.120;2024-02-14T12:34:53;6.15;;;2.35;;
71566;SDS011;59403;47.456;19.120;2024-02-14T12:37:21;4.37;;;1.92;;
71566;SDS011;59403;47.456;19.120;2024-02-14T12:39:48;4.43;;;1.85;;
71566;SDS011;59403;47.456;19.120;2024-02-14T12:42:14;4.90;;;2.20;;
71566;SDS011;59403;47.456;19.120;2024-02-14T12:44:43;4.87;;;2.13;;
71566;SDS011;59403;47.456;19.120;2024-02-14T12:47:09;4.18;;;2.15;;
71566;SDS011;59403;47.456;19.120;2024-02-14T12:49:36;3.55;;;1.70;;
71566;SDS011;59403;47.456;19.120;2024-02-14T12:52:04;3.72;;;1.85;;
71566;SDS011;59403;47.456;19.120;2024-02-14T12:54:31;3.70;;;1.92;;
71566;SDS011;59403;47.456;19.120;2024-02-14T12:56:57;3.20;;;1.73;;
71566;SDS011;59403;47.456;19.120;2024-02-14T12:59:24;4.70;;;1.98;;
71566;SDS011;59403;47.456;19.120;2024-02-14T13:01:51;4.87;;;1.83;;
71566;SDS011;59403;47.456;19.120;2024-02-14T13:04:18;3.10;;;1.85;;
71566;SDS011;59403;47.456;19.120;2024-02-14T13:06:45;4.43;;;2.05;;
71566;SDS011;59403;47.456;19.120;2024-02-14T13:09:14;3.80;;;1.70;;
71566;SDS011;59403;47.456;19.120;2024-02-14T13:11:41;3.92;;;1.60;;
71566;SDS011;59403;47.456;19.120;2024-02-14T13:14:07;3.33;;;1.70;;
71566;SDS011;59403;47.456;19.120;2024-02-14T13:16:34;4.72;;;1.85;;
71566;SDS011;59403;47.456;19.120;2024-02-14T13:19:01;4.10;;;1.90;;
71566;SDS011;59403;47.456;19.120;2024-02-14T13:21:27;2.63;;;1.57;;
71566;SDS011;59403;47.456;19.120;2024-02-14T13:23:54;4.95;;;2.05;;
71566;SDS011;59403;47.456;19.120;2024-02-14T13:26:23;5.28;;;2.40;;
71566;SDS011;59403;47.456;19.120;2024-02-14T13:28:50;5.00;;;2.08;;
71566;SDS011;59403;47.456;19.120;2024-02-14T13:31:17;4.68;;;2.58;;
71566;SDS011;59403;47.456;19.120;2024-02-14T13:33:43;7.57;;;2.47;;
71566;SDS011;59403;47.456;19.120;2024-02-14T13:36:10;6.40;;;2.78;;
71566;SDS011;59403;47.456;19.120;2024-02-14T13:38:36;5.30;;;2.60;;
71566;SDS011;59403;47.456;19.120;2024-02-14T13:41:03;7.75;;;2.97;;
71566;SDS011;59403;47.456;19.120;2024-02-14T13:43:31;4.55;;;2.62;;
71566;SDS011;59403;47.456;19.120;2024-02-14T13:45:58;4.30;;;2.70;;
71566;SDS011;59403;47.456;19.120;2024-02-14T13:48:24;6.18;;;3.08;;
71566;SDS011;59403;47.456;19.120;2024-02-14T13:50:51;7.00;;;3.17;;
71566;SDS011;59403;47.456;19.120;2024-02-14T13:53:18;9.13;;;3.12;;
71566;SDS011;59403;47.456;19.120;2024-02-14T13:55:44;6.45;;;3.55;;
71566;SDS011;59403;47.456;19.120;2024-02-14T13:58:11;6.83;;;3.20;;
71566;SDS011;59403;47.456;19.120;2024-02-14T14:00:43;5.70;;;3.30;;
71566;SDS011;59403;47.456;19.120;2024-02-14T14:03:09;8.90;;;3.42;;
71566;SDS011;59403;47.456;19.120;2024-02-14T14:05:36;4.95;;;3.10;;
71566;SDS011;59403;47.456;19.120;2024-02-14T14:08:03;5.15;;;2.85;;
71566;SDS011;59403;47.456;19.120;2024-02-14T14:10:30;6.93;;;3.20;;
71566;SDS011;59403;47.456;19.120;2024-02-14T14:12:57;5.50;;;3.25;;
71566;SDS011;59403;47.456;19.120;2024-02-14T14:15:23;6.20;;;3.20;;
71566;SDS011;59403;47.456;19.120;2024-02-14T14:17:52;5.25;;;3.03;;
71566;SDS011;59403;47.456;19.120;2024-02-14T14:20:19;6.62;;;3.62;;
71566;SDS011;59403;47.456;19.120;2024-02-14T14:22:46;7.43;;;3.17;;
71566;SDS011;59403;47.456;19.120;2024-02-14T14:25:12;7.07;;;3.05;;
71566;SDS011;59403;47.456;19.120;2024-02-14T14:27:39;6.45;;;3.55;;
71566;SDS011;59403;47.456;19.120;2024-02-14T14:30:06;12.00;;;4.00;;
71566;SDS011;59403;47.456;19.120;2024-02-14T14:32:33;5.75;;;3.25;;